Main page
METAR-TAF:

METAR-TAF

Airports :

Rodez–Aveyron Airport

Rodez, France

latitude: 44-24N, longitude: 002-29E, elevation: 581 m

Current weather observation

The report was made 41 minutes ago, at 23:30 UTC
Wind 2 kt from the East/Southeast
Temperature -2°C
Humidity 100%
Pressure 1008 hPa
Visibility 10 km or more
no clouds below 1500 m and no cumulonimbus

METAR: LFCR 172330Z AUTO 11002KT CAVOK M02/M02 Q1008 NOSIG

Time: 01:11 (00:11 UTC)

Forecast

The report was made 1 hour and 11 minutes ago, at 23:00 UTC
Forecast valid from 18 at 00 UTC to 18 at 24 UTC
Wind 3 kt from variable directions
Visibility 10 km or more
no clouds below 1500 m and no cumulonimbus
Becoming
from 18 at 12 UTC to 18 at 14 UTC
Wind 6 kt from the North/Northwest
Becoming
from 18 at 21 UTC to 18 at 24 UTC
Visibility: 3000 m
Overcast at a height of 300 ft
mist

TAF: LFCR 172300Z 1800/1824 VRB03KT CAVOK BECMG 1812/1814 34006KT BECMG 1821/1824 3000 BR OVC003

Weather observations and forecasts of more than 4000 airports (METAR and TAF reports).

The available stations are represented by yellow and red dots on the map.

Hover mouse over dot to see the name of the station.

Then click to see weather observations and forecasts.

To change the map : click on the green buttons with a black cross to zoom in, on the green button with a dash to zoom out, or on the green arrows for adjacent maps.


METAR-TAF: